sensor_id;sensor_type;location;lat;lon;timestamp;temperature;humidity
65707;SHT31;52423;43.512;5.220;2023-04-03T00:01:14;11.23;68.12
65707;SHT31;52423;43.512;5.220;2023-04-03T00:03:40;11.15;68.17
65707;SHT31;52423;43.512;5.220;2023-04-03T00:06:06;11.19;68.02
65707;SHT31;52423;43.512;5.220;2023-04-03T00:08:34;11.18;68.02
65707;SHT31;52423;43.512;5.220;2023-04-03T00:11:00;11.16;67.91
65707;SHT31;52423;43.512;5.220;2023-04-03T00:13:25;11.23;67.71
65707;SHT31;52423;43.512;5.220;2023-04-03T00:15:51;11.19;67.70
65707;SHT31;52423;43.512;5.220;2023-04-03T00:18:16;11.18;67.96
65707;SHT31;52423;43.512;5.220;2023-04-03T00:20:42;11.16;67.91
65707;SHT31;52423;43.512;5.220;2023-04-03T00:23:08;11.19;67.87
65707;SHT31;52423;43.512;5.220;2023-04-03T00:25:33;11.14;67.88
65707;SHT31;52423;43.512;5.220;2023-04-03T00:27:59;11.04;68.15
65707;SHT31;52423;43.512;5.220;2023-04-03T00:30:25;11.10;67.79
65707;SHT31;52423;43.512;5.220;2023-04-03T00:32:51;11.08;67.97
65707;SHT31;52423;43.512;5.220;2023-04-03T00:35:18;11.04;67.99
65707;SHT31;52423;43.512;5.220;2023-04-03T00:37:44;11.12;67.63
65707;SHT31;52423;43.512;5.220;2023-04-03T00:40:10;11.15;67.72
65707;SHT31;52423;43.512;5.220;2023-04-03T00:42:37;11.14;67.85
65707;SHT31;52423;43.512;5.220;2023-04-03T00:47:30;11.12;67.15
65707;SHT31;52423;43.512;5.220;2023-04-03T00:49:56;11.10;67.07
65707;SHT31;52423;43.512;5.220;2023-04-03T00:52:25;11.16;67.27
65707;SHT31;52423;43.512;5.220;2023-04-03T00:54:54;11.02;67.31
65707;SHT31;52423;43.512;5.220;2023-04-03T00:57:22;11.11;67.33
65707;SHT31;52423;43.512;5.220;2023-04-03T00:59:55;11.05;67.09
65707;SHT31;52423;43.512;5.220;2023-04-03T01:02:21;11.01;67.61
65707;SHT31;52423;43.512;5.220;2023-04-03T01:04:46;11.10;67.30
65707;SHT31;52423;43.512;5.220;2023-04-03T01:07:15;10.98;67.23
65707;SHT31;52423;43.512;5.220;2023-04-03T01:09:40;11.04;67.74
65707;SHT31;52423;43.512;5.220;2023-04-03T01:12:22;11.04;67.45
65707;SHT31;52423;43.512;5.220;2023-04-03T01:14:50;11.08;66.90
65707;SHT31;52423;43.512;5.220;2023-04-03T01:20:23;11.04;67.11
65707;SHT31;52423;43.512;5.220;2023-04-03T01:25:49;11.19;66.32
65707;SHT31;52423;43.512;5.220;2023-04-03T01:30:50;11.15;66.37
65707;SHT31;52423;43.512;5.220;2023-04-03T01:33:16;11.02;66.99
65707;SHT31;52423;43.512;5.220;2023-04-03T01:35:41;11.02;66.91
65707;SHT31;52423;43.512;5.220;2023-04-03T01:38:07;11.00;66.53
65707;SHT31;52423;43.512;5.220;2023-04-03T01:40:32;10.94;67.32
65707;SHT31;52423;43.512;5.220;2023-04-03T01:42:58;11.01;67.12
65707;SHT31;52423;43.512;5.220;2023-04-03T01:45:23;10.81;66.97
65707;SHT31;52423;43.512;5.220;2023-04-03T01:47:48;10.92;67.78
65707;SHT31;52423;43.512;5.220;2023-04-03T01:50:14;10.88;67.29
65707;SHT31;52423;43.512;5.220;2023-04-03T01:52:39;10.87;67.39
65707;SHT31;52423;43.512;5.220;2023-04-03T01:55:05;10.92;67.46
65707;SHT31;52423;43.512;5.220;2023-04-03T01:57:31;10.84;67.48
65707;SHT31;52423;43.512;5.220;2023-04-03T01:59:56;10.91;67.61
65707;SHT31;52423;43.512;5.220;2023-04-03T02:02:21;10.84;67.83
65707;SHT31;52423;43.512;5.220;2023-04-03T02:04:47;10.85;67.87
65707;SHT31;52423;43.512;5.220;2023-04-03T02:07:12;10.84;68.36
65707;SHT31;52423;43.512;5.220;2023-04-03T02:09:37;10.87;67.62
65707;SHT31;52423;43.512;5.220;2023-04-03T02:12:03;10.57;68.96
65707;SHT31;52423;43.512;5.220;2023-04-03T02:14:28;10.56;69.03
65707;SHT31;52423;43.512;5.220;2023-04-03T02:16:54;10.56;69.38
65707;SHT31;52423;43.512;5.220;2023-04-03T02:19:19;10.49;69.53
65707;SHT31;52423;43.512;5.220;2023-04-03T02:21:44;10.63;68.91
65707;SHT31;52423;43.512;5.220;2023-04-03T02:24:10;10.68;69.00
65707;SHT31;52423;43.512;5.220;2023-04-03T02:26:35;10.56;69.12
65707;SHT31;52423;43.512;5.220;2023-04-03T02:29:01;10.43;69.74
65707;SHT31;52423;43.512;5.220;2023-04-03T02:31:26;10.56;69.40
65707;SHT31;52423;43.512;5.220;2023-04-03T02:33:51;10.57;69.26
65707;SHT31;52423;43.512;5.220;2023-04-03T02:36:17;10.59;69.03
65707;SHT31;52423;43.512;5.220;2023-04-03T02:38:42;10.44;70.24
65707;SHT31;52423;43.512;5.220;2023-04-03T02:41:10;10.44;70.04
65707;SHT31;52423;43.512;5.220;2023-04-03T02:43:37;10.56;69.52
65707;SHT31;52423;43.512;5.220;2023-04-03T02:46:03;10.49;70.11
65707;SHT31;52423;43.512;5.220;2023-04-03T02:48:28;10.34;69.89
65707;SHT31;52423;43.512;5.220;2023-04-03T02:50:54;10.32;70.03
65707;SHT31;52423;43.512;5.220;2023-04-03T02:53:20;10.29;70.48
65707;SHT31;52423;43.512;5.220;2023-04-03T02:55:45;10.23;71.14
65707;SHT31;52423;43.512;5.220;2023-04-03T02:58:11;10.34;70.79
65707;SHT31;52423;43.512;5.220;2023-04-03T03:00:36;10.34;70.65
65707;SHT31;52423;43.512;5.220;2023-04-03T03:03:02;10.12;70.64
65707;SHT31;52423;43.512;5.220;2023-04-03T03:05:28;10.19;70.87
65707;SHT31;52423;43.512;5.220;2023-04-03T03:07:54;10.22;70.72
65707;SHT31;52423;43.512;5.220;2023-04-03T03:10:21;10.06;70.82
65707;SHT31;52423;43.512;5.220;2023-04-03T03:12:46;9.86;71.97
65707;SHT31;52423;43.512;5.220;2023-04-03T03:15:12;9.85;72.23
65707;SHT31;52423;43.512;5.220;2023-04-03T03:17:37;9.96;72.02
65707;SHT31;52423;43.512;5.220;2023-04-03T03:20:04;10.03;72.23
65707;SHT31;52423;43.512;5.220;2023-04-03T03:22:30;10.10;71.70
65707;SHT31;52423;43.512;5.220;2023-04-03T03:24:55;10.14;72.15
65707;SHT31;52423;43.512;5.220;2023-04-03T03:27:21;10.23;71.62
65707;SHT31;52423;43.512;5.220;2023-04-03T03:29:46;10.20;71.72
65707;SHT31;52423;43.512;5.220;2023-04-03T03:32:12;10.29;71.54
65707;SHT31;52423;43.512;5.220;2023-04-03T03:34:37;10.19;71.90
65707;SHT31;52423;43.512;5.220;2023-04-03T03:37:02;10.30;71.40
65707;SHT31;52423;43.512;5.220;2023-04-03T03:39:28;10.22;71.86
65707;SHT31;52423;43.512;5.220;2023-04-03T03:41:54;10.13;71.94
65707;SHT31;52423;43.512;5.220;2023-04-03T03:44:20;10.22;72.05
65707;SHT31;52423;43.512;5.220;2023-04-03T03:46:45;10.08;72.18
65707;SHT31;52423;43.512;5.220;2023-04-03T03:49:11;10.23;71.54
65707;SHT31;52423;43.512;5.220;2023-04-03T03:51:37;10.12;72.07
65707;SHT31;52423;43.512;5.220;2023-04-03T03:54:03;10.14;72.38
65707;SHT31;52423;43.512;5.220;2023-04-03T03:56:28;10.13;71.98
65707;SHT31;52423;43.512;5.220;2023-04-03T03:58:54;10.20;72.32
65707;SHT31;52423;43.512;5.220;2023-04-03T04:01:21;10.09;72.20
65707;SHT31;52423;43.512;5.220;2023-04-03T04:03:47;10.06;72.63
65707;SHT31;52423;43.512;5.220;2023-04-03T04:06:13;9.98;72.69
65707;SHT31;52423;43.512;5.220;2023-04-03T04:08:38;9.98;72.93
65707;SHT31;52423;43.512;5.220;2023-04-03T04:11:03;9.99;72.47
65707;SHT31;52423;43.512;5.220;2023-04-03T04:13:29;9.95;72.76
65707;SHT31;52423;43.512;5.220;2023-04-03T04:15:54;9.99;72.43
65707;SHT31;52423;43.512;5.220;2023-04-03T04:18:20;9.89;72.69
65707;SHT31;52423;43.512;5.220;2023-04-03T04:20:46;9.91;72.99
65707;SHT31;52423;43.512;5.220;2023-04-03T04:23:12;10.03;72.62
65707;SHT31;52423;43.512;5.220;2023-04-03T04:25:37;10.01;72.86
65707;SHT31;52423;43.512;5.220;2023-04-03T04:28:03;10.12;72.32
65707;SHT31;52423;43.512;5.220;2023-04-03T04:30:28;9.92;73.17
65707;SHT31;52423;43.512;5.220;2023-04-03T04:32:54;9.91;73.01
65707;SHT31;52423;43.512;5.220;2023-04-03T04:35:19;9.85;73.58
65707;SHT31;52423;43.512;5.220;2023-04-03T04:37:45;9.93;73.01
65707;SHT31;52423;43.512;5.220;2023-04-03T04:40:11;9.79;73.39
65707;SHT31;52423;43.512;5.220;2023-04-03T04:42:36;9.77;73.74
65707;SHT31;52423;43.512;5.220;2023-04-03T04:45:02;9.83;73.56
65707;SHT31;52423;43.512;5.220;2023-04-03T04:47:28;9.98;73.14
65707;SHT31;52423;43.512;5.220;2023-04-03T04:49:54;9.83;73.92
65707;SHT31;52423;43.512;5.220;2023-04-03T04:52:20;9.68;73.80
65707;SHT31;52423;43.512;5.220;2023-04-03T04:54:45;9.79;73.45
65707;SHT31;52423;43.512;5.220;2023-04-03T04:57:11;9.65;73.89
65707;SHT31;52423;43.512;5.220;2023-04-03T04:59:36;9.83;73.54
65707;SHT31;52423;43.512;5.220;2023-04-03T05:02:01;9.75;73.77
65707;SHT31;52423;43.512;5.220;2023-04-03T05:04:27;9.70;73.89
65707;SHT31;52423;43.512;5.220;2023-04-03T05:06:53;9.68;73.84
65707;SHT31;52423;43.512;5.220;2023-04-03T05:09:18;9.70;73.75
65707;SHT31;52423;43.512;5.220;2023-04-03T05:11:45;9.75;73.58
65707;SHT31;52423;43.512;5.220;2023-04-03T05:14:11;9.74;73.57
65707;SHT31;52423;43.512;5.220;2023-04-03T05:16:36;9.74;73.24
65707;SHT31;52423;43.512;5.220;2023-04-03T05:19:02;9.72;73.63
65707;SHT31;52423;43.512;5.220;2023-04-03T05:21:27;9.51;73.86
65707;SHT31;52423;43.512;5.220;2023-04-03T05:23:57;9.54;73.91
65707;SHT31;52423;43.512;5.220;2023-04-03T05:26:23;9.67;73.53
65707;SHT31;52423;43.512;5.220;2023-04-03T05:28:48;9.58;73.49
65707;SHT31;52423;43.512;5.220;2023-04-03T05:31:14;9.61;73.96
65707;SHT31;52423;43.512;5.220;2023-04-03T05:33:39;9.75;73.44
65707;SHT31;52423;43.512;5.220;2023-04-03T05:36:05;9.67;73.75
65707;SHT31;52423;43.512;5.220;2023-04-03T05:38:32;9.79;73.32
65707;SHT31;52423;43.512;5.220;2023-04-03T05:40:57;9.58;73.91
65707;SHT31;52423;43.512;5.220;2023-04-03T05:43:23;9.72;73.57
65707;SHT31;52423;43.512;5.220;2023-04-03T05:45:48;9.71;73.92
65707;SHT31;52423;43.512;5.220;2023-04-03T05:48:13;9.74;73.60
65707;SHT31;52423;43.512;5.220;2023-04-03T05:50:39;9.67;73.98
65707;SHT31;52423;43.512;5.220;2023-04-03T05:53:07;9.61;74.22
65707;SHT31;52423;43.512;5.220;2023-04-03T05:55:37;9.62;74.15
65707;SHT31;52423;43.512;5.220;2023-04-03T05:58:02;9.79;73.83
65707;SHT31;52423;43.512;5.220;2023-04-03T06:00:28;9.67;74.26
65707;SHT31;52423;43.512;5.220;2023-04-03T06:02:53;9.79;73.71
65707;SHT31;52423;43.512;5.220;2023-04-03T06:05:19;9.78;73.71
65707;SHT31;52423;43.512;5.220;2023-04-03T06:07:44;9.75;74.12
65707;SHT31;52423;43.512;5.220;2023-04-03T06:10:12;9.74;73.87
65707;SHT31;52423;43.512;5.220;2023-04-03T06:12:37;9.91;74.09
65707;SHT31;52423;43.512;5.220;2023-04-03T06:15:03;9.98;73.58
65707;SHT31;52423;43.512;5.220;2023-04-03T06:17:29;10.16;72.91
65707;SHT31;52423;43.512;5.220;2023-04-03T06:19:54;10.14;73.14
65707;SHT31;52423;43.512;5.220;2023-04-03T06:22:21;10.19;72.74
65707;SHT31;52423;43.512;5.220;2023-04-03T06:24:46;10.37;72.36
65707;SHT31;52423;43.512;5.220;2023-04-03T06:27:12;10.24;72.76
65707;SHT31;52423;43.512;5.220;2023-04-03T06:29:37;10.37;72.52
65707;SHT31;52423;43.512;5.220;2023-04-03T06:32:03;10.44;72.36
65707;SHT31;52423;43.512;5.220;2023-04-03T06:34:28;10.53;72.26
65707;SHT31;52423;43.512;5.220;2023-04-03T06:36:53;10.60;71.23
65707;SHT31;52423;43.512;5.220;2023-04-03T06:39:20;10.68;71.09
65707;SHT31;52423;43.512;5.220;2023-04-03T06:41:47;10.73;70.50
65707;SHT31;52423;43.512;5.220;2023-04-03T06:44:12;10.77;70.46
65707;SHT31;52423;43.512;5.220;2023-04-03T06:46:40;10.85;70.64
65707;SHT31;52423;43.512;5.220;2023-04-03T06:49:06;10.88;70.57
65707;SHT31;52423;43.512;5.220;2023-04-03T06:51:35;10.97;69.60
65707;SHT31;52423;43.512;5.220;2023-04-03T06:54:01;11.04;70.35
65707;SHT31;52423;43.512;5.220;2023-04-03T06:56:28;11.22;69.42
65707;SHT31;52423;43.512;5.220;2023-04-03T06:58:54;11.38;69.55
65707;SHT31;52423;43.512;5.220;2023-04-03T07:01:23;11.55;68.31
65707;SHT31;52423;43.512;5.220;2023-04-03T07:03:49;11.76;68.74
65707;SHT31;52423;43.512;5.220;2023-04-03T07:06:16;11.73;68.45
65707;SHT31;52423;43.512;5.220;2023-04-03T07:08:42;11.84;67.63
65707;SHT31;52423;43.512;5.220;2023-04-03T07:11:08;11.98;68.06
65707;SHT31;52423;43.512;5.220;2023-04-03T07:13:34;11.93;67.45
65707;SHT31;52423;43.512;5.220;2023-04-03T07:16:00;12.10;66.94
65707;SHT31;52423;43.512;5.220;2023-04-03T07:18:26;12.16;66.26
65707;SHT31;52423;43.512;5.220;2023-04-03T07:20:51;12.27;66.99
65707;SHT31;52423;43.512;5.220;2023-04-03T07:23:18;12.48;66.22
65707;SHT31;52423;43.512;5.220;2023-04-03T07:25:48;12.45;64.75
65707;SHT31;52423;43.512;5.220;2023-04-03T07:28:15;12.79;64.60
65707;SHT31;52423;43.512;5.220;2023-04-03T07:30:46;12.71;64.03
65707;SHT31;52423;43.512;5.220;2023-04-03T07:33:13;12.63;63.55
65707;SHT31;52423;43.512;5.220;2023-04-03T07:35:39;12.79;64.06
65707;SHT31;52423;43.512;5.220;2023-04-03T07:38:05;12.96;64.02
65707;SHT31;52423;43.512;5.220;2023-04-03T07:40:31;12.91;62.05
65707;SHT31;52423;43.512;5.220;2023-04-03T07:42:56;12.96;62.95
65707;SHT31;52423;43.512;5.220;2023-04-03T07:45:22;12.97;62.24
65707;SHT31;52423;43.512;5.220;2023-04-03T07:47:48;13.12;63.64
65707;SHT31;52423;43.512;5.220;2023-04-03T07:50:13;13.12;63.53
65707;SHT31;52423;43.512;5.220;2023-04-03T07:52:38;13.67;62.69
65707;SHT31;52423;43.512;5.220;2023-04-03T07:55:04;13.70;61.36
65707;SHT31;52423;43.512;5.220;2023-04-03T07:57:30;13.75;61.71
65707;SHT31;52423;43.512;5.220;2023-04-03T07:59:56;13.85;60.18
65707;SHT31;52423;43.512;5.220;2023-04-03T08:02:21;13.70;61.03
65707;SHT31;52423;43.512;5.220;2023-04-03T08:04:47;13.86;60.06
65707;SHT31;52423;43.512;5.220;2023-04-03T08:07:12;13.78;60.61
65707;SHT31;52423;43.512;5.220;2023-04-03T08:09:37;13.86;59.96
65707;SHT31;52423;43.512;5.220;2023-04-03T08:12:03;13.63;60.00
65707;SHT31;52423;43.512;5.220;2023-04-03T08:14:31;13.77;59.75
65707;SHT31;52423;43.512;5.220;2023-04-03T08:16:56;14.15;61.46
65707;SHT31;52423;43.512;5.220;2023-04-03T08:19:22;14.04;58.81
65707;SHT31;52423;43.512;5.220;2023-04-03T08:21:47;14.02;58.07
65707;SHT31;52423;43.512;5.220;2023-04-03T08:24:13;14.73;58.72
65707;SHT31;52423;43.512;5.220;2023-04-03T08:26:38;14.63;56.43
65707;SHT31;52423;43.512;5.220;2023-04-03T08:29:03;15.03;56.70
65707;SHT31;52423;43.512;5.220;2023-04-03T08:31:29;15.27;55.97
65707;SHT31;52423;43.512;5.220;2023-04-03T08:33:56;15.34;55.76
65707;SHT31;52423;43.512;5.220;2023-04-03T08:36:26;15.72;51.88
65707;SHT31;52423;43.512;5.220;2023-04-03T08:38:53;15.28;53.20
65707;SHT31;52423;43.512;5.220;2023-04-03T08:44:15;15.83;52.58
65707;SHT31;52423;43.512;5.220;2023-04-03T08:49:43;15.49;54.48
65707;SHT31;52423;43.512;5.220;2023-04-03T08:52:16;15.76;52.42
65707;SHT31;52423;43.512;5.220;2023-04-03T08:54:50;16.16;53.57
65707;SHT31;52423;43.512;5.220;2023-04-03T08:57:17;16.14;52.52
65707;SHT31;52423;43.512;5.220;2023-04-03T08:59:43;16.00;51.24
65707;SHT31;52423;43.512;5.220;2023-04-03T09:02:24;15.83;50.33
65707;SHT31;52423;43.512;5.220;2023-04-03T09:04:52;15.89;50.99
65707;SHT31;52423;43.512;5.220;2023-04-03T09:07:39;16.41;51.71
65707;SHT31;52423;43.512;5.220;2023-04-03T09:10:11;16.74;52.11
65707;SHT31;52423;43.512;5.220;2023-04-03T09:12:39;16.67;50.04
65707;SHT31;52423;43.512;5.220;2023-04-03T09:15:17;16.47;49.15
65707;SHT31;52423;43.512;5.220;2023-04-03T09:18:06;16.55;47.70
65707;SHT31;52423;43.512;5.220;2023-04-03T09:23:19;16.88;48.08
65707;SHT31;52423;43.512;5.220;2023-04-03T09:25:46;16.64;46.46
65707;SHT31;52423;43.512;5.220;2023-04-03T09:28:12;16.89;46.78
65707;SHT31;52423;43.512;5.220;2023-04-03T09:30:37;16.82;48.45
65707;SHT31;52423;43.512;5.220;2023-04-03T09:33:04;16.98;46.73
65707;SHT31;52423;43.512;5.220;2023-04-03T09:35:33;16.96;46.27
65707;SHT31;52423;43.512;5.220;2023-04-03T09:40:42;17.03;45.65
65707;SHT31;52423;43.512;5.220;2023-04-03T09:45:42;16.74;47.69
65707;SHT31;52423;43.512;5.220;2023-04-03T09:48:16;17.15;48.52
65707;SHT31;52423;43.512;5.220;2023-04-03T09:51:03;17.46;45.57
65707;SHT31;52423;43.512;5.220;2023-04-03T09:53:35;17.30;44.51
65707;SHT31;52423;43.512;5.220;2023-04-03T09:58:48;17.84;45.73
65707;SHT31;52423;43.512;5.220;2023-04-03T10:01:56;18.11;44.04
65707;SHT31;52423;43.512;5.220;2023-04-03T10:04:22;18.15;45.01
65707;SHT31;52423;43.512;5.220;2023-04-03T10:06:51;17.88;45.65
65707;SHT31;52423;43.512;5.220;2023-04-03T10:09:25;17.73;45.11
65707;SHT31;52423;43.512;5.220;2023-04-03T10:12:05;18.29;45.82
65707;SHT31;52423;43.512;5.220;2023-04-03T10:14:33;18.35;44.35
65707;SHT31;52423;43.512;5.220;2023-04-03T10:19:53;18.55;43.00
65707;SHT31;52423;43.512;5.220;2023-04-03T10:33:18;18.66;42.38
65707;SHT31;52423;43.512;5.220;2023-04-03T10:38:41;18.80;42.42
65707;SHT31;52423;43.512;5.220;2023-04-03T10:49:28;19.06;39.33
65707;SHT31;52423;43.512;5.220;2023-04-03T10:52:02;18.84;39.55
65707;SHT31;52423;43.512;5.220;2023-04-03T10:57:32;19.50;39.28
65707;SHT31;52423;43.512;5.220;2023-04-03T11:00:01;19.66;40.77
65707;SHT31;52423;43.512;5.220;2023-04-03T11:02:33;19.74;40.85
65707;SHT31;52423;43.512;5.220;2023-04-03T11:05:25;19.92;39.65
65707;SHT31;52423;43.512;5.220;2023-04-03T11:07:53;20.03;41.11
65707;SHT31;52423;43.512;5.220;2023-04-03T11:10:30;20.13;41.11
65707;SHT31;52423;43.512;5.220;2023-04-03T11:13:13;19.99;40.96
65707;SHT31;52423;43.512;5.220;2023-04-03T11:15:41;19.44;39.44
65707;SHT31;52423;43.512;5.220;2023-04-03T11:18:15;19.57;40.28
65707;SHT31;52423;43.512;5.220;2023-04-03T11:20:49;19.89;38.67
65707;SHT31;52423;43.512;5.220;2023-04-03T11:23:24;19.74;40.87
65707;SHT31;52423;43.512;5.220;2023-04-03T11:25:53;19.89;40.73
65707;SHT31;52423;43.512;5.220;2023-04-03T11:28:19;19.82;39.34
65707;SHT31;52423;43.512;5.220;2023-04-03T11:31:26;19.78;39.70
65707;SHT31;52423;43.512;5.220;2023-04-03T11:34:24;19.99;39.74
65707;SHT31;52423;43.512;5.220;2023-04-03T11:36:58;20.10;38.54
65707;SHT31;52423;43.512;5.220;2023-04-03T11:39:31;19.97;38.79
65707;SHT31;52423;43.512;5.220;2023-04-03T11:42:24;19.96;38.35
65707;SHT31;52423;43.512;5.220;2023-04-03T11:50:46;20.36;39.80
65707;SHT31;52423;43.512;5.220;2023-04-03T11:55:46;20.32;37.14
65707;SHT31;52423;43.512;5.220;2023-04-03T11:58:18;20.39;38.61
65707;SHT31;52423;43.512;5.220;2023-04-03T12:26:25;20.44;39.36
65707;SHT31;52423;43.512;5.220;2023-04-03T12:28:52;20.46;38.45
65707;SHT31;52423;43.512;5.220;2023-04-03T12:31:19;20.47;37.85
65707;SHT31;52423;43.512;5.220;2023-04-03T12:34:07;20.43;39.24
65707;SHT31;52423;43.512;5.220;2023-04-03T12:36:46;20.63;37.89
65707;SHT31;52423;43.512;5.220;2023-04-03T12:39:43;20.60;36.36
65707;SHT31;52423;43.512;5.220;2023-04-03T12:45:03;20.60;35.99
65707;SHT31;52423;43.512;5.220;2023-04-03T12:47:36;20.60;36.59
65707;SHT31;52423;43.512;5.220;2023-04-03T12:50:05;20.50;38.20
65707;SHT31;52423;43.512;5.220;2023-04-03T12:52:56;20.55;40.86
65707;SHT31;52423;43.512;5.220;2023-04-03T12:55:22;20.44;40.82
65707;SHT31;52423;43.512;5.220;2023-04-03T12:57:48;20.47;39.76
65707;SHT31;52423;43.512;5.220;2023-04-03T13:00:34;20.43;40.72
65707;SHT31;52423;43.512;5.220;2023-04-03T13:03:02;20.22;41.00
65707;SHT31;52423;43.512;5.220;2023-04-03T13:05:28;20.20;40.08
65707;SHT31;52423;43.512;5.220;2023-04-03T13:08:03;20.10;40.94
65707;SHT31;52423;43.512;5.220;2023-04-03T13:10:30;20.23;40.90
65707;SHT31;52423;43.512;5.220;2023-04-03T13:12:58;19.41;42.01
65707;SHT31;52423;43.512;5.220;2023-04-03T13:15:41;19.55;40.57
65707;SHT31;52423;43.512;5.220;2023-04-03T13:18:24;19.41;41.93
65707;SHT31;52423;43.512;5.220;2023-04-03T13:20:50;19.47;42.11
65707;SHT31;52423;43.512;5.220;2023-04-03T13:23:17;19.59;41.16
65707;SHT31;52423;43.512;5.220;2023-04-03T13:25:45;19.83;40.65
65707;SHT31;52423;43.512;5.220;2023-04-03T13:28:13;19.85;42.03
65707;SHT31;52423;43.512;5.220;2023-04-03T13:30:41;19.79;41.00
65707;SHT31;52423;43.512;5.220;2023-04-03T13:33:22;19.50;41.18
65707;SHT31;52423;43.512;5.220;2023-04-03T13:36:02;19.52;40.84
65707;SHT31;52423;43.512;5.220;2023-04-03T13:38:30;19.55;41.68
65707;SHT31;52423;43.512;5.220;2023-04-03T13:41:05;19.72;41.65
65707;SHT31;52423;43.512;5.220;2023-04-03T13:43:33;19.68;41.38
65707;SHT31;52423;43.512;5.220;2023-04-03T13:46:02;19.65;40.74
65707;SHT31;52423;43.512;5.220;2023-04-03T13:51:07;19.36;41.25
65707;SHT31;52423;43.512;5.220;2023-04-03T13:53:47;19.78;41.95
65707;SHT31;52423;43.512;5.220;2023-04-03T13:56:20;19.71;40.97
65707;SHT31;52423;43.512;5.220;2023-04-03T14:04:23;19.62;41.76
65707;SHT31;52423;43.512;5.220;2023-04-03T14:06:50;19.69;40.81
65707;SHT31;52423;43.512;5.220;2023-04-03T14:09:17;19.64;41.55
65707;SHT31;52423;43.512;5.220;2023-04-03T14:11:43;19.62;41.36
65707;SHT31;52423;43.512;5.220;2023-04-03T14:14:18;19.74;41.97
65707;SHT31;52423;43.512;5.220;2023-04-03T14:16:48;19.75;41.64
65707;SHT31;52423;43.512;5.220;2023-04-03T14:19:30;19.55;41.93
65707;SHT31;52423;43.512;5.220;2023-04-03T14:21:58;19.47;40.40
65707;SHT31;52423;43.512;5.220;2023-04-03T14:24:24;19.62;41.71
65707;SHT31;52423;43.512;5.220;2023-04-03T14:26:51;19.44;41.95
65707;SHT31;52423;43.512;5.220;2023-04-03T14:29:18;19.44;41.98
65707;SHT31;52423;43.512;5.220;2023-04-03T14:31:45;19.23;42.54
65707;SHT31;52423;43.512;5.220;2023-04-03T14:34:11;19.57;42.92
65707;SHT31;52423;43.512;5.220;2023-04-03T14:36:37;19.52;41.62
65707;SHT31;52423;43.512;5.220;2023-04-03T14:39:04;19.31;42.25
65707;SHT31;52423;43.512;5.220;2023-04-03T14:41:30;19.17;42.14
65707;SHT31;52423;43.512;5.220;2023-04-03T14:43:56;19.03;42.88
65707;SHT31;52423;43.512;5.220;2023-04-03T14:46:39;19.11;43.62
65707;SHT31;52423;43.512;5.220;2023-04-03T14:49:19;18.87;43.10
65707;SHT31;52423;43.512;5.220;2023-04-03T14:51:45;18.49;43.44
65707;SHT31;52423;43.512;5.220;2023-04-03T14:54:17;18.31;43.67
65707;SHT31;52423;43.512;5.220;2023-04-03T14:56:44;17.98;44.42
65707;SHT31;52423;43.512;5.220;2023-04-03T14:59:11;18.22;45.02
65707;SHT31;52423;43.512;5.220;2023-04-03T15:01:37;18.28;44.15
65707;SHT31;52423;43.512;5.220;2023-04-03T15:04:23;17.93;44.30
65707;SHT31;52423;43.512;5.220;2023-04-03T15:06:49;17.80;44.92
65707;SHT31;52423;43.512;5.220;2023-04-03T15:09:19;18.00;46.66
65707;SHT31;52423;43.512;5.220;2023-04-03T15:11:46;18.02;45.12
65707;SHT31;52423;43.512;5.220;2023-04-03T15:14:11;17.74;45.11
65707;SHT31;52423;43.512;5.220;2023-04-03T15:16:36;17.80;46.78
65707;SHT31;52423;43.512;5.220;2023-04-03T15:19:02;17.78;45.26
65707;SHT31;52423;43.512;5.220;2023-04-03T15:21:27;17.70;45.85
65707;SHT31;52423;43.512;5.220;2023-04-03T15:23:53;17.69;46.50
65707;SHT31;52423;43.512;5.220;2023-04-03T15:26:18;17.63;46.91
65707;SHT31;52423;43.512;5.220;2023-04-03T15:28:44;17.69;47.32
65707;SHT31;52423;43.512;5.220;2023-04-03T15:31:10;17.66;46.02
65707;SHT31;52423;43.512;5.220;2023-04-03T15:33:36;17.29;46.10
65707;SHT31;52423;43.512;5.220;2023-04-03T15:36:03;17.25;46.70
65707;SHT31;52423;43.512;5.220;2023-04-03T15:38:28;17.39;47.99
65707;SHT31;52423;43.512;5.220;2023-04-03T15:40:54;17.42;47.36
65707;SHT31;52423;43.512;5.220;2023-04-03T15:43:20;17.43;46.91
65707;SHT31;52423;43.512;5.220;2023-04-03T15:45:47;17.36;45.55
65707;SHT31;52423;43.512;5.220;2023-04-03T15:48:13;17.18;46.94
65707;SHT31;52423;43.512;5.220;2023-04-03T15:50:39;17.25;47.89
65707;SHT31;52423;43.512;5.220;2023-04-03T15:53:05;17.30;47.04
65707;SHT31;52423;43.512;5.220;2023-04-03T15:55:32;17.20;47.37
65707;SHT31;52423;43.512;5.220;2023-04-03T15:57:58;17.18;46.71
65707;SHT31;52423;43.512;5.220;2023-04-03T16:00:23;17.13;47.74
65707;SHT31;52423;43.512;5.220;2023-04-03T16:03:10;17.16;47.96
65707;SHT31;52423;43.512;5.220;2023-04-03T16:05:37;17.11;47.10
65707;SHT31;52423;43.512;5.220;2023-04-03T16:08:03;16.96;47.31
65707;SHT31;52423;43.512;5.220;2023-04-03T16:10:30;16.85;47.89
65707;SHT31;52423;43.512;5.220;2023-04-03T16:12:55;16.61;47.20
65707;SHT31;52423;43.512;5.220;2023-04-03T16:15:21;16.48;47.98
65707;SHT31;52423;43.512;5.220;2023-04-03T16:17:47;16.53;47.70
65707;SHT31;52423;43.512;5.220;2023-04-03T16:20:14;16.41;47.91
65707;SHT31;52423;43.512;5.220;2023-04-03T16:22:40;16.55;49.06
65707;SHT31;52423;43.512;5.220;2023-04-03T16:25:07;16.48;48.41
65707;SHT31;52423;43.512;5.220;2023-04-03T16:27:33;16.60;48.12
65707;SHT31;52423;43.512;5.220;2023-04-03T16:29:58;16.53;48.15
65707;SHT31;52423;43.512;5.220;2023-04-03T16:32:26;16.43;48.71
65707;SHT31;52423;43.512;5.220;2023-04-03T16:34:52;16.24;48.41
65707;SHT31;52423;43.512;5.220;2023-04-03T16:37:17;16.16;48.65
65707;SHT31;52423;43.512;5.220;2023-04-03T16:39:43;16.00;48.89
65707;SHT31;52423;43.512;5.220;2023-04-03T16:42:08;15.92;49.26
65707;SHT31;52423;43.512;5.220;2023-04-03T16:44:35;16.02;50.05
65707;SHT31;52423;43.512;5.220;2023-04-03T16:47:00;15.94;49.94
65707;SHT31;52423;43.512;5.220;2023-04-03T16:49:26;15.67;49.80
65707;SHT31;52423;43.512;5.220;2023-04-03T16:51:55;15.59;50.16
65707;SHT31;52423;43.512;5.220;2023-04-03T16:54:20;15.58;50.35
65707;SHT31;52423;43.512;5.220;2023-04-03T16:56:46;15.65;50.14
65707;SHT31;52423;43.512;5.220;2023-04-03T16:59:11;15.51;50.74
65707;SHT31;52423;43.512;5.220;2023-04-03T17:01:36;15.49;51.07
65707;SHT31;52423;43.512;5.220;2023-04-03T17:04:02;15.51;51.66
65707;SHT31;52423;43.512;5.220;2023-04-03T17:06:27;15.55;51.64
65707;SHT31;52423;43.512;5.220;2023-04-03T17:08:53;15.46;51.66
65707;SHT31;52423;43.512;5.220;2023-04-03T17:11:18;15.41;50.99
65707;SHT31;52423;43.512;5.220;2023-04-03T17:13:43;15.11;51.93
65707;SHT31;52423;43.512;5.220;2023-04-03T17:16:12;15.11;51.83
65707;SHT31;52423;43.512;5.220;2023-04-03T17:18:39;15.00;52.43